AAL600 KPHL-KCLT
Flight info
| Callsign | AAL600 |
|---|---|
| Flight time | 1h 14m |
| Altitude | 36000 |
| Route | STOEN Q75 GVE AIROW CHSLY6 |
| Aircraft | A321/M-SDE3FGHIRWY/LB1 |
Departure
| Time | 2026-05-04 04:14 |
|---|---|
| Airport | Philadelphia International Airport (KPHL) |
Arrival
| Time | 2026-05-04 05:28 |
|---|---|
| Airport | Charlotte Douglas International Airport (KCLT) |
| Time | Latitude | Longitude | Altitude | Speed | Heading |
|---|---|---|---|---|---|
| 2026-05-04 03:48 | 39.87438 | -75.24301 | 10 ft | 0 kts | 288° |
| 2026-05-04 04:04 | 39.87435 | -75.24289 | 11 ft | 2 kts | 288° |
| 2026-05-04 04:04 | 39.87431 | -75.24271 | 11 ft | 2 kts | 288° |
| 2026-05-04 04:04 | 39.87427 | -75.24258 | 11 ft | 1 kts | 289° |
| 2026-05-04 04:04 | 39.87427 | -75.24248 | 11 ft | 1 kts | 232° |
| 2026-05-04 04:05 | 39.87433 | -75.24242 | 11 ft | 1 kts | 180° |
| 2026-05-04 04:05 | 39.87439 | -75.24244 | 11 ft | 0 kts | 165° |
| 2026-05-04 04:05 | 39.87442 | -75.24245 | 11 ft | 0 kts | 169° |
| 2026-05-04 04:07 | 39.87439 | -75.24244 | 11 ft | 1 kts | 168° |
| 2026-05-04 04:07 | 39.87425 | -75.24240 | 11 ft | 4 kts | 169° |
| 2026-05-04 04:07 | 39.87387 | -75.24232 | 11 ft | 7 kts | 171° |
| 2026-05-04 04:07 | 39.87334 | -75.24211 | 11 ft | 8 kts | 159° |
| 2026-05-04 04:08 | 39.87284 | -75.24163 | 11 ft | 9 kts | 115° |
| 2026-05-04 04:08 | 39.87284 | -75.24071 | 11 ft | 10 kts | 77° |
| 2026-05-04 04:08 | 39.87305 | -75.23975 | 11 ft | 10 kts | 74° |
| 2026-05-04 04:08 | 39.87326 | -75.23880 | 11 ft | 10 kts | 73° |
| 2026-05-04 04:09 | 39.87347 | -75.23785 | 11 ft | 11 kts | 75° |
| 2026-05-04 04:09 | 39.87366 | -75.23688 | 11 ft | 11 kts | 76° |
| 2026-05-04 04:09 | 39.87385 | -75.23590 | 11 ft | 11 kts | 75° |
| 2026-05-04 04:09 | 39.87404 | -75.23492 | 11 ft | 11 kts | 76° |
| 2026-05-04 04:10 | 39.87423 | -75.23391 | 11 ft | 11 kts | 76° |
| 2026-05-04 04:10 | 39.87443 | -75.23289 | 11 ft | 11 kts | 76° |
| 2026-05-04 04:10 | 39.87463 | -75.23189 | 11 ft | 11 kts | 76° |
| 2026-05-04 04:10 | 39.87483 | -75.23090 | 11 ft | 11 kts | 76° |
| 2026-05-04 04:11 | 39.87503 | -75.22988 | 11 ft | 11 kts | 75° |
| 2026-05-04 04:11 | 39.87523 | -75.22888 | 11 ft | 11 kts | 76° |
| 2026-05-04 04:11 | 39.87542 | -75.22787 | 11 ft | 11 kts | 76° |
| 2026-05-04 04:11 | 39.87562 | -75.22685 | 11 ft | 11 kts | 76° |
| 2026-05-04 04:12 | 39.87583 | -75.22582 | 11 ft | 11 kts | 75° |
| 2026-05-04 04:12 | 39.87600 | -75.22486 | 12 ft | 10 kts | 86° |
| 2026-05-04 04:12 | 39.87593 | -75.22396 | 13 ft | 9 kts | 109° |
| 2026-05-04 04:12 | 39.87544 | -75.22338 | 14 ft | 10 kts | 168° |
| 2026-05-04 04:13 | 39.87500 | -75.22405 | 12 ft | 11 kts | 254° |
| 2026-05-04 04:13 | 39.87443 | -75.22705 | 11 ft | 69 kts | 257° |
| 2026-05-04 04:13 | 39.87268 | -75.23596 | 11 ft | 133 kts | 258° |
| 2026-05-04 04:13 | 39.86954 | -75.24965 | 137 ft | 171 kts | 257° |
| 2026-05-04 04:14 | 39.86674 | -75.26471 | 652 ft | 177 kts | 259° |
| 2026-05-04 04:14 | 39.86354 | -75.28051 | 1311 ft | 184 kts | 258° |
| 2026-05-04 04:14 | 39.86075 | -75.29601 | 2130 ft | 174 kts | 266° |
| 2026-05-04 04:14 | 39.85971 | -75.31177 | 2475 ft | 182 kts | 274° |
| 2026-05-04 04:15 | 39.86012 | -75.32892 | 2762 ft | 195 kts | 276° |
| 2026-05-04 04:15 | 39.85989 | -75.34730 | 2979 ft | 215 kts | 273° |
| 2026-05-04 04:15 | 39.85921 | -75.36746 | 3326 ft | 228 kts | 272° |
| 2026-05-04 04:15 | 39.85838 | -75.38842 | 3621 ft | 242 kts | 271° |
| 2026-05-04 04:16 | 39.85740 | -75.41065 | 4083 ft | 248 kts | 271° |
| 2026-05-04 04:16 | 39.85635 | -75.43308 | 4652 ft | 250 kts | 271° |
| 2026-05-04 04:16 | 39.85525 | -75.45562 | 5208 ft | 252 kts | 271° |
| 2026-05-04 04:16 | 39.85414 | -75.47849 | 5741 ft | 255 kts | 271° |
| 2026-05-04 04:17 | 39.85309 | -75.50128 | 6255 ft | 257 kts | 271° |
| 2026-05-04 04:17 | 39.85199 | -75.52459 | 6786 ft | 258 kts | 271° |
| 2026-05-04 04:17 | 39.85084 | -75.54771 | 7312 ft | 259 kts | 271° |
| 2026-05-04 04:17 | 39.84966 | -75.57112 | 7850 ft | 260 kts | 271° |
| 2026-05-04 04:18 | 39.84848 | -75.59462 | 8377 ft | 260 kts | 271° |
| 2026-05-04 04:18 | 39.84732 | -75.61793 | 8902 ft | 261 kts | 271° |
| 2026-05-04 04:18 | 39.84613 | -75.64153 | 9400 ft | 261 kts | 272° |
| 2026-05-04 04:18 | 39.84494 | -75.66517 | 9889 ft | 262 kts | 271° |
| 2026-05-04 04:19 | 39.84377 | -75.68862 | 10307 ft | 265 kts | 271° |
| 2026-05-04 04:19 | 39.84258 | -75.71307 | 10519 ft | 276 kts | 271° |
| 2026-05-04 04:19 | 39.84133 | -75.73844 | 10707 ft | 285 kts | 271° |
| 2026-05-04 04:19 | 39.84003 | -75.76412 | 10908 ft | 292 kts | 271° |
| 2026-05-04 04:20 | 39.83650 | -75.79060 | 11208 ft | 302 kts | 257° |
| 2026-05-04 04:20 | 39.82749 | -75.81525 | 11558 ft | 310 kts | 243° |
| 2026-05-04 04:20 | 39.81419 | -75.83789 | 11930 ft | 314 kts | 237° |
| 2026-05-04 04:20 | 39.80026 | -75.85989 | 12309 ft | 315 kts | 237° |
| 2026-05-04 04:21 | 39.78644 | -75.88157 | 12647 ft | 317 kts | 237° |
| 2026-05-04 04:21 | 39.77234 | -75.90376 | 12983 ft | 317 kts | 237° |
| 2026-05-04 04:21 | 39.75833 | -75.92592 | 13312 ft | 318 kts | 237° |
| 2026-05-04 04:21 | 39.74425 | -75.94823 | 13635 ft | 319 kts | 237° |
| 2026-05-04 04:22 | 39.73038 | -75.97025 | 13944 ft | 320 kts | 237° |
| 2026-05-04 04:22 | 39.71615 | -75.99282 | 14233 ft | 320 kts | 237° |
| 2026-05-04 04:22 | 39.70199 | -76.01527 | 14527 ft | 322 kts | 237° |
| 2026-05-04 04:22 | 39.68798 | -76.03747 | 14797 ft | 323 kts | 237° |
| 2026-05-04 04:23 | 39.67355 | -76.06033 | 15062 ft | 324 kts | 237° |
| 2026-05-04 04:23 | 39.65941 | -76.08272 | 15320 ft | 325 kts | 237° |
| 2026-05-04 04:23 | 39.64492 | -76.10564 | 15579 ft | 326 kts | 237° |
| 2026-05-04 04:23 | 39.63045 | -76.12852 | 15822 ft | 328 kts | 237° |
| 2026-05-04 04:24 | 39.61600 | -76.15134 | 16063 ft | 329 kts | 237° |
| 2026-05-04 04:24 | 39.60154 | -76.17417 | 16294 ft | 330 kts | 237° |
| 2026-05-04 04:24 | 39.58673 | -76.19720 | 16535 ft | 332 kts | 237° |
| 2026-05-04 04:24 | 39.57185 | -76.22009 | 16762 ft | 333 kts | 237° |
| 2026-05-04 04:25 | 39.55703 | -76.24284 | 16987 ft | 334 kts | 237° |
| 2026-05-04 04:25 | 39.54199 | -76.26594 | 17188 ft | 335 kts | 237° |
| 2026-05-04 04:25 | 39.52688 | -76.28914 | 17380 ft | 337 kts | 237° |
| 2026-05-04 04:25 | 39.51173 | -76.31237 | 17596 ft | 338 kts | 237° |
| 2026-05-04 04:26 | 39.49674 | -76.33537 | 17799 ft | 338 kts | 237° |
| 2026-05-04 04:26 | 39.48146 | -76.35878 | 17999 ft | 339 kts | 237° |
| 2026-05-04 04:26 | 39.46624 | -76.38179 | 18182 ft | 342 kts | 235° |
| 2026-05-04 04:26 | 39.44975 | -76.40428 | 18342 ft | 345 kts | 233° |
| 2026-05-04 04:27 | 39.43287 | -76.42645 | 18521 ft | 346 kts | 232° |
| 2026-05-04 04:27 | 39.41608 | -76.44843 | 18709 ft | 347 kts | 232° |
| 2026-05-04 04:27 | 39.39903 | -76.47071 | 18885 ft | 347 kts | 232° |
| 2026-05-04 04:27 | 39.38219 | -76.49271 | 19062 ft | 348 kts | 233° |
| 2026-05-04 04:28 | 39.36510 | -76.51502 | 19237 ft | 348 kts | 233° |
| 2026-05-04 04:28 | 39.34801 | -76.53733 | 19392 ft | 349 kts | 233° |
| 2026-05-04 04:28 | 39.33112 | -76.55938 | 19546 ft | 350 kts | 233° |
| 2026-05-04 04:28 | 39.31383 | -76.58192 | 19701 ft | 351 kts | 233° |
| 2026-05-04 04:29 | 39.29681 | -76.60412 | 19846 ft | 352 kts | 233° |
| 2026-05-04 04:29 | 39.27954 | -76.62659 | 19998 ft | 353 kts | 233° |
| 2026-05-04 04:29 | 39.26213 | -76.64927 | 20141 ft | 354 kts | 233° |
| 2026-05-04 04:29 | 39.24483 | -76.67176 | 20296 ft | 355 kts | 232° |
| 2026-05-04 04:30 | 39.22742 | -76.69437 | 20456 ft | 355 kts | 232° |
| 2026-05-04 04:30 | 39.20996 | -76.71706 | 20605 ft | 356 kts | 232° |
| 2026-05-04 04:30 | 39.19244 | -76.73978 | 20770 ft | 356 kts | 232° |
| 2026-05-04 04:30 | 39.17519 | -76.76215 | 20937 ft | 356 kts | 232° |
| 2026-05-04 04:31 | 39.15783 | -76.78458 | 21389 ft | 348 kts | 232° |
| 2026-05-04 04:31 | 39.14115 | -76.80604 | 21997 ft | 336 kts | 233° |
| 2026-05-04 04:31 | 39.12489 | -76.82701 | 22640 ft | 323 kts | 233° |
| 2026-05-04 04:31 | 39.10937 | -76.84701 | 23282 ft | 310 kts | 234° |
| 2026-05-04 04:32 | 39.09452 | -76.86620 | 23835 ft | 301 kts | 234° |
| 2026-05-04 04:32 | 39.07980 | -76.88532 | 24141 ft | 300 kts | 234° |
| 2026-05-04 04:32 | 39.06525 | -76.90424 | 24363 ft | 302 kts | 234° |
| 2026-05-04 04:32 | 39.05036 | -76.92355 | 24614 ft | 307 kts | 234° |
| 2026-05-04 04:33 | 39.03509 | -76.94332 | 24927 ft | 315 kts | 234° |
| 2026-05-04 04:33 | 39.01949 | -76.96349 | 25125 ft | 325 kts | 234° |
| 2026-05-04 04:33 | 39.00336 | -76.98428 | 25326 ft | 335 kts | 233° |
| 2026-05-04 04:33 | 38.98652 | -77.00598 | 25516 ft | 345 kts | 233° |
| 2026-05-04 04:34 | 38.96956 | -77.02784 | 25689 ft | 354 kts | 233° |
| 2026-05-04 04:34 | 38.95195 | -77.05050 | 25871 ft | 363 kts | 233° |
| 2026-05-04 04:34 | 38.93401 | -77.07358 | 26040 ft | 372 kts | 232° |
| 2026-05-04 04:34 | 38.91557 | -77.09727 | 26246 ft | 379 kts | 232° |
| 2026-05-04 04:35 | 38.89669 | -77.12144 | 26569 ft | 382 kts | 232° |
| 2026-05-04 04:35 | 38.87791 | -77.14548 | 26918 ft | 385 kts | 232° |
| 2026-05-04 04:35 | 38.85885 | -77.16986 | 27290 ft | 386 kts | 232° |
| 2026-05-04 04:35 | 38.83991 | -77.19408 | 27636 ft | 387 kts | 232° |
| 2026-05-04 04:36 | 38.82100 | -77.21828 | 28012 ft | 388 kts | 232° |
| 2026-05-04 04:36 | 38.80182 | -77.24279 | 28379 ft | 389 kts | 232° |
| 2026-05-04 04:36 | 38.78272 | -77.26717 | 28708 ft | 390 kts | 232° |
| 2026-05-04 04:36 | 38.76338 | -77.29185 | 29055 ft | 391 kts | 232° |
| 2026-05-04 04:37 | 38.70400 | -77.36437 | 29987 ft | 397 kts | 229° |
| 2026-05-04 04:37 | 38.68361 | -77.38796 | 30271 ft | 398 kts | 229° |
| 2026-05-04 04:38 | 38.66296 | -77.41180 | 30546 ft | 399 kts | 229° |
| 2026-05-04 04:38 | 38.64253 | -77.43541 | 30755 ft | 400 kts | 229° |
| 2026-05-04 04:38 | 38.62177 | -77.45936 | 30973 ft | 401 kts | 229° |
| 2026-05-04 04:38 | 38.60118 | -77.48309 | 31182 ft | 401 kts | 229° |
| 2026-05-04 04:39 | 38.58045 | -77.50701 | 31380 ft | 402 kts | 229° |
| 2026-05-04 04:39 | 38.55972 | -77.53088 | 31625 ft | 401 kts | 229° |
| 2026-05-04 04:39 | 38.53921 | -77.55445 | 31885 ft | 400 kts | 229° |
| 2026-05-04 04:39 | 38.51847 | -77.57828 | 32119 ft | 400 kts | 229° |
| 2026-05-04 04:40 | 38.49802 | -77.60176 | 32356 ft | 399 kts | 229° |
| 2026-05-04 04:40 | 38.47725 | -77.62559 | 32611 ft | 398 kts | 229° |
| 2026-05-04 04:40 | 38.45695 | -77.64887 | 32845 ft | 398 kts | 229° |
| 2026-05-04 04:40 | 38.43621 | -77.67262 | 33087 ft | 397 kts | 229° |
| 2026-05-04 04:41 | 38.41587 | -77.69593 | 33313 ft | 397 kts | 229° |
| 2026-05-04 04:41 | 38.39523 | -77.71957 | 33539 ft | 397 kts | 229° |
| 2026-05-04 04:41 | 38.37491 | -77.74279 | 33800 ft | 397 kts | 229° |
| 2026-05-04 04:41 | 38.35422 | -77.76642 | 34064 ft | 396 kts | 229° |
| 2026-05-04 04:42 | 38.33381 | -77.78974 | 34337 ft | 395 kts | 229° |
| 2026-05-04 04:42 | 38.31351 | -77.81289 | 34584 ft | 394 kts | 229° |
| 2026-05-04 04:42 | 38.29297 | -77.83631 | 34787 ft | 395 kts | 229° |
| 2026-05-04 04:42 | 38.27257 | -77.85955 | 34978 ft | 396 kts | 228° |
| 2026-05-04 04:43 | 38.25199 | -77.88296 | 35165 ft | 397 kts | 229° |
| 2026-05-04 04:43 | 38.23130 | -77.90647 | 35326 ft | 398 kts | 229° |
| 2026-05-04 04:43 | 38.21084 | -77.92972 | 35487 ft | 399 kts | 228° |
| 2026-05-04 04:43 | 38.19006 | -77.95333 | 35702 ft | 398 kts | 228° |
| 2026-05-04 04:44 | 38.16939 | -77.97675 | 35894 ft | 397 kts | 229° |
| 2026-05-04 04:44 | 38.14915 | -77.99969 | 36018 ft | 399 kts | 228° |
| 2026-05-04 04:44 | 38.12824 | -78.02337 | 36120 ft | 401 kts | 228° |
| 2026-05-04 04:44 | 38.10743 | -78.04694 | 36121 ft | 402 kts | 228° |
| 2026-05-04 04:45 | 38.06577 | -78.09399 | 36133 ft | 401 kts | 228° |
| 2026-05-04 04:47 | 37.93187 | -78.26928 | 36135 ft | 393 kts | 234° |
| 2026-05-04 04:47 | 37.89576 | -78.32057 | 36135 ft | 393 kts | 235° |
| 2026-05-04 04:48 | 37.85947 | -78.37205 | 36127 ft | 393 kts | 235° |
| 2026-05-04 04:49 | 37.76893 | -78.50021 | 36132 ft | 391 kts | 235° |
| 2026-05-04 04:49 | 37.73288 | -78.55114 | 36127 ft | 390 kts | 235° |
| 2026-05-04 04:50 | 37.69684 | -78.60191 | 36132 ft | 389 kts | 235° |
| 2026-05-04 04:50 | 37.66056 | -78.65296 | 36135 ft | 390 kts | 235° |
| 2026-05-04 04:51 | 37.62457 | -78.70353 | 36137 ft | 388 kts | 234° |
| 2026-05-04 04:51 | 37.58858 | -78.75399 | 36133 ft | 388 kts | 235° |
| 2026-05-04 04:52 | 37.55250 | -78.80460 | 36134 ft | 387 kts | 234° |
| 2026-05-04 04:52 | 37.51660 | -78.85477 | 36142 ft | 385 kts | 235° |
| 2026-05-04 04:53 | 37.48074 | -78.90482 | 36145 ft | 387 kts | 235° |
| 2026-05-04 04:53 | 37.44505 | -78.95463 | 36146 ft | 385 kts | 235° |
| 2026-05-04 04:54 | 37.40898 | -79.00485 | 36156 ft | 384 kts | 235° |
| 2026-05-04 04:54 | 37.37326 | -79.05450 | 36155 ft | 384 kts | 235° |
| 2026-05-04 04:55 | 37.33746 | -79.10420 | 36163 ft | 383 kts | 235° |
| 2026-05-04 04:55 | 37.30181 | -79.15359 | 36164 ft | 384 kts | 235° |
| 2026-05-04 04:56 | 37.26521 | -79.20270 | 36163 ft | 386 kts | 232° |
| 2026-05-04 04:56 | 37.22515 | -79.24755 | 36167 ft | 389 kts | 227° |
| 2026-05-04 04:57 | 37.18134 | -79.28836 | 36159 ft | 393 kts | 225° |
| 2026-05-04 04:57 | 37.13716 | -79.32842 | 36162 ft | 392 kts | 225° |
| 2026-05-04 04:58 | 37.09318 | -79.36813 | 36156 ft | 391 kts | 225° |
| 2026-05-04 04:58 | 37.04911 | -79.40778 | 36158 ft | 391 kts | 225° |
| 2026-05-04 04:59 | 37.00494 | -79.44713 | 36155 ft | 391 kts | 224° |
| 2026-05-04 04:59 | 36.95992 | -79.48508 | 36159 ft | 390 kts | 223° |
| 2026-05-04 05:00 | 36.91487 | -79.52290 | 36158 ft | 391 kts | 224° |
| 2026-05-04 05:01 | 36.84762 | -79.57958 | 36171 ft | 390 kts | 224° |
| 2026-05-04 05:01 | 36.80259 | -79.61746 | 36161 ft | 388 kts | 224° |
| 2026-05-04 05:02 | 36.75776 | -79.65503 | 35673 ft | 391 kts | 223° |
| 2026-05-04 05:02 | 36.73524 | -79.67388 | 35117 ft | 392 kts | 224° |
| 2026-05-04 05:02 | 36.71270 | -79.69272 | 34533 ft | 394 kts | 224° |
| 2026-05-04 05:02 | 36.68986 | -79.71186 | 33819 ft | 398 kts | 224° |
| 2026-05-04 05:03 | 36.66679 | -79.73117 | 33149 ft | 403 kts | 224° |
| 2026-05-04 05:03 | 36.64372 | -79.75050 | 32326 ft | 408 kts | 223° |
| 2026-05-04 05:04 | 36.57259 | -79.80980 | 30276 ft | 408 kts | 223° |
| 2026-05-04 05:04 | 36.54933 | -79.82911 | 29648 ft | 405 kts | 223° |
| 2026-05-04 05:04 | 36.52601 | -79.84849 | 29092 ft | 400 kts | 223° |
| 2026-05-04 05:06 | 36.37136 | -79.97680 | 25530 ft | 368 kts | 223° |
| 2026-05-04 05:06 | 36.35012 | -79.99441 | 25025 ft | 365 kts | 224° |
| 2026-05-04 05:06 | 36.32922 | -80.01171 | 24517 ft | 362 kts | 223° |
| 2026-05-04 05:07 | 36.30827 | -80.02900 | 24045 ft | 359 kts | 223° |
| 2026-05-04 05:07 | 36.28751 | -80.04612 | 23535 ft | 358 kts | 223° |
| 2026-05-04 05:07 | 36.26678 | -80.06323 | 23046 ft | 356 kts | 223° |
| 2026-05-04 05:09 | 36.10612 | -80.19538 | 19371 ft | 342 kts | 222° |
| 2026-05-04 05:09 | 36.08631 | -80.21165 | 18897 ft | 342 kts | 222° |
| 2026-05-04 05:10 | 36.06664 | -80.22778 | 18429 ft | 341 kts | 222° |
| 2026-05-04 05:10 | 36.04681 | -80.24403 | 17977 ft | 340 kts | 222° |
| 2026-05-04 05:10 | 36.02711 | -80.26017 | 17516 ft | 340 kts | 221° |
| 2026-05-04 05:10 | 36.00742 | -80.27628 | 17041 ft | 339 kts | 221° |
| 2026-05-04 05:11 | 36.00084 | -80.28165 | 16882 ft | 338 kts | 221° |
| 2026-05-04 05:11 | 35.97024 | -80.30663 | 16320 ft | 331 kts | 221° |
| 2026-05-04 05:11 | 35.95118 | -80.32220 | 15886 ft | 330 kts | 221° |
| 2026-05-04 05:11 | 35.93206 | -80.33783 | 15458 ft | 329 kts | 221° |
| 2026-05-04 05:12 | 35.91324 | -80.35319 | 15040 ft | 327 kts | 221° |
| 2026-05-04 05:12 | 35.89424 | -80.36871 | 14609 ft | 326 kts | 220° |
| 2026-05-04 05:12 | 35.87538 | -80.38406 | 14184 ft | 324 kts | 220° |
| 2026-05-04 05:12 | 35.85690 | -80.39908 | 13937 ft | 315 kts | 220° |
| 2026-05-04 05:13 | 35.83872 | -80.41379 | 13819 ft | 302 kts | 221° |
| 2026-05-04 05:13 | 35.82219 | -80.42860 | 13593 ft | 293 kts | 225° |
| 2026-05-04 05:13 | 35.80607 | -80.44415 | 13183 ft | 292 kts | 225° |
| 2026-05-04 05:13 | 35.79027 | -80.45953 | 12799 ft | 291 kts | 225° |
| 2026-05-04 05:14 | 35.77443 | -80.47490 | 12418 ft | 290 kts | 225° |
| 2026-05-04 05:14 | 35.75835 | -80.49014 | 12036 ft | 290 kts | 221° |
| 2026-05-04 05:14 | 35.74099 | -80.50240 | 11666 ft | 293 kts | 211° |
| 2026-05-04 05:14 | 35.72183 | -80.51128 | 11302 ft | 295 kts | 204° |
| 2026-05-04 05:15 | 35.70229 | -80.51880 | 10935 ft | 293 kts | 202° |
| 2026-05-04 05:15 | 35.68283 | -80.52608 | 10575 ft | 291 kts | 202° |
| 2026-05-04 05:15 | 35.66350 | -80.53333 | 10222 ft | 289 kts | 203° |
| 2026-05-04 05:15 | 35.64453 | -80.54054 | 9873 ft | 287 kts | 203° |
| 2026-05-04 05:16 | 35.62546 | -80.54787 | 9518 ft | 285 kts | 202° |
| 2026-05-04 05:16 | 35.60676 | -80.55506 | 9175 ft | 282 kts | 202° |
| 2026-05-04 05:16 | 35.58838 | -80.56251 | 9026 ft | 269 kts | 209° |
| 2026-05-04 05:16 | 35.57457 | -80.57589 | 8873 ft | 245 kts | 242° |
| 2026-05-04 05:17 | 35.56863 | -80.59476 | 8552 ft | 235 kts | 268° |
| 2026-05-04 05:17 | 35.56839 | -80.61445 | 8230 ft | 232 kts | 274° |
| 2026-05-04 05:17 | 35.56852 | -80.63434 | 7904 ft | 232 kts | 274° |
| 2026-05-04 05:17 | 35.56853 | -80.65412 | 7582 ft | 231 kts | 272° |
| 2026-05-04 05:18 | 35.56842 | -80.67375 | 7267 ft | 231 kts | 272° |
| 2026-05-04 05:18 | 35.56825 | -80.69318 | 6959 ft | 229 kts | 272° |
| 2026-05-04 05:18 | 35.56804 | -80.71268 | 6649 ft | 228 kts | 272° |
| 2026-05-04 05:18 | 35.56782 | -80.73222 | 6346 ft | 227 kts | 272° |
| 2026-05-04 05:19 | 35.56759 | -80.75151 | 6089 ft | 227 kts | 272° |
| 2026-05-04 05:19 | 35.56734 | -80.77026 | 6041 ft | 212 kts | 272° |
| 2026-05-04 05:19 | 35.56567 | -80.78805 | 6030 ft | 211 kts | 251° |
| 2026-05-04 05:19 | 35.55648 | -80.80111 | 6091 ft | 199 kts | 218° |
| 2026-05-04 05:20 | 35.54462 | -80.80905 | 5943 ft | 188 kts | 212° |
| 2026-05-04 05:20 | 35.53301 | -80.81631 | 5628 ft | 184 kts | 212° |
| 2026-05-04 05:20 | 35.52196 | -80.82332 | 5397 ft | 174 kts | 212° |
| 2026-05-04 05:20 | 35.51169 | -80.82996 | 5251 ft | 163 kts | 213° |
| 2026-05-04 05:21 | 35.50168 | -80.83658 | 5148 ft | 162 kts | 214° |
| 2026-05-04 05:21 | 35.49186 | -80.84315 | 5005 ft | 161 kts | 214° |
| 2026-05-04 05:21 | 35.48193 | -80.84986 | 4820 ft | 161 kts | 214° |
| 2026-05-04 05:21 | 35.47223 | -80.85642 | 4624 ft | 161 kts | 214° |
| 2026-05-04 05:22 | 35.46237 | -80.86311 | 4419 ft | 161 kts | 213° |
| 2026-05-04 05:22 | 35.45254 | -80.86976 | 4211 ft | 161 kts | 213° |
| 2026-05-04 05:22 | 35.44284 | -80.87632 | 4021 ft | 160 kts | 213° |
| 2026-05-04 05:22 | 35.43304 | -80.88294 | 3999 ft | 160 kts | 213° |
| 2026-05-04 05:23 | 35.42321 | -80.88958 | 3965 ft | 160 kts | 213° |
| 2026-05-04 05:23 | 35.41347 | -80.89616 | 3924 ft | 160 kts | 213° |
| 2026-05-04 05:23 | 35.40360 | -80.90283 | 3880 ft | 160 kts | 213° |
| 2026-05-04 05:23 | 35.39393 | -80.90937 | 3827 ft | 160 kts | 213° |
| 2026-05-04 05:24 | 35.38411 | -80.91601 | 3714 ft | 160 kts | 213° |
| 2026-05-04 05:24 | 35.37437 | -80.92257 | 3604 ft | 160 kts | 213° |
| 2026-05-04 05:24 | 35.36456 | -80.92920 | 3487 ft | 159 kts | 212° |
| 2026-05-04 05:24 | 35.35492 | -80.93570 | 3360 ft | 159 kts | 212° |
| 2026-05-04 05:25 | 35.34533 | -80.94217 | 3215 ft | 158 kts | 212° |
| 2026-05-04 05:25 | 35.33463 | -80.94592 | 2895 ft | 162 kts | 186° |
| 2026-05-04 05:25 | 35.32343 | -80.94540 | 2655 ft | 160 kts | 176° |
| 2026-05-04 05:25 | 35.31257 | -80.94393 | 2435 ft | 153 kts | 176° |
| 2026-05-04 05:26 | 35.30210 | -80.94272 | 2239 ft | 152 kts | 177° |
| 2026-05-04 05:26 | 35.29147 | -80.94174 | 2041 ft | 152 kts | 178° |
| 2026-05-04 05:26 | 35.28088 | -80.94089 | 1849 ft | 151 kts | 178° |
| 2026-05-04 05:26 | 35.27045 | -80.94003 | 1652 ft | 150 kts | 177° |
| 2026-05-04 05:27 | 35.25998 | -80.93915 | 1451 ft | 150 kts | 177° |
| 2026-05-04 05:28 | 35.21227 | -80.93622 | 728 ft | 11 kts | 309° |
| 2026-05-04 05:29 | 35.21233 | -80.93630 | 728 ft | 0 kts | 324° |
| 2026-05-04 05:29 | 35.21260 | -80.93643 | 729 ft | 5 kts | 351° |
| 2026-05-04 05:29 | 35.21296 | -80.93644 | 729 ft | 5 kts | 358° |
| 2026-05-04 05:29 | 35.21330 | -80.93647 | 730 ft | 4 kts | 356° |
| 2026-05-04 05:31 | 35.21853 | -80.93700 | 736 ft | 14 kts | 355° |
| 2026-05-04 05:31 | 35.21954 | -80.93708 | 736 ft | 14 kts | 356° |
| 2026-05-04 05:32 | 35.22054 | -80.93716 | 737 ft | 14 kts | 355° |
| 2026-05-04 05:32 | 35.22149 | -80.93726 | 738 ft | 12 kts | 353° |
| 2026-05-04 05:32 | 35.22197 | -80.93807 | 737 ft | 13 kts | 277° |
| 2026-05-04 05:33 | 35.22185 | -80.93924 | 733 ft | 5 kts | 236° |
| 2026-05-04 05:33 | 35.22166 | -80.93939 | 732 ft | 0 kts | 199° |
| 2026-05-04 05:33 | 35.22150 | -80.93943 | 732 ft | 1 kts | 188° |
| 2026-05-04 05:33 | 35.22139 | -80.93945 | 732 ft | 1 kts | 189° |
| 2026-05-04 05:34 | 35.22133 | -80.93946 | 731 ft | 0 kts | 189° |